Eland, WI

7:40 PM CST on December 24, 2014 (GMT -0600)
Knopf's House | Change Station
CLOSE
Current Station
Personal Weather Station
Location: Weston, WI
Elevation: 1214 ft
Nearby Weather Stations

Elev 1214 ft 44.91 °N, 89.55 °W | Updated 2 minutes ago

Overcast
Overcast
32.4 °F
Feels Like 32 °F
N
2.2
Wind Variable Wind from NNW

Today
High -- | Low -- °F
--% Chance of Precip.
Yesterday
High -- | Low -- °F
Precip. -- in
7:32 AM 4:20 PM
Waxing Crescent, 12% visible
Pressure 29.55 in
Visibility 10.0 miles
Clouds Few 1800 ft
Mostly Cloudy 2300 ft
Overcast 3400 ft
Windchill 32 °F
Dew Point 31 °F
Humidity 94%
Rainfall 0.15 in
Snow Depth Not available.
UV 0 out of 12
Pollen .10 out of 12
Air Quality Not available.
Flu Activity Not available.
METAR KAUW 250054Z AUTO 31008KT 10SM FEW018 BKN023 OVC034 00/M02 A2950 RMK AO2 SLP005 T00001017

More Conditions Fewer Conditions

Pressure 29.55 in
Visibility 10.0 miles
Clouds Few 1800 ft
Mostly Cloudy 2300 ft
Overcast 3400 ft
Windchill 32 °F
Dew Point 31 °F
Humidity 94%
Rainfall 0.15 in
Snow Depth Not available.
UV 0 out of 12
Pollen .10 out of 12
Air Quality Not available.
Flu Activity Not available.
METAR KAUW 250054Z AUTO 31008KT 10SM FEW018 BKN023 OVC034 00/M02 A2950 RMK AO2 SLP005 T00001017

More Conditions Fewer Conditions

10-Day Weather Forecast

Almanac

Astronomy

Dec. 24, 2014 Rise Set
Actual Time
Civil Twilight
Nautical Twilight
Astronomical Twilight
Moon
Length of Visible Light
Length of Day
Tomorrow will be .
, % of the Moon is Illuminated

Today's Extremes

State Highs State Lows

Community

WunderPhotos

Upload Photos

1,780,208 photos uploaded!

WunderBlogs® & News

Nearby

Air Quality

  Air Quality AQ Index Pollutant
Not available.

Snow Depth

Station Depth Elevation

Earthquake Activity

City Distance Mag. Time & Date
Minimum magnitude displayed is 2.5.

Coastal Water Temperatures

Place Temperature

Nearby Weather Stations